sensor_id;sensor_type;location;lat;lon;timestamp;temperature;humidity
21648;DHT22;10985;54.182;7.890;2023-07-20T00:02:19;15.30;99.90
21648;DHT22;10985;54.182;7.890;2023-07-20T00:04:45;15.30;99.90
21648;DHT22;10985;54.182;7.890;2023-07-20T00:07:10;15.30;99.90
21648;DHT22;10985;54.182;7.890;2023-07-20T00:09:36;15.30;99.90
21648;DHT22;10985;54.182;7.890;2023-07-20T00:12:01;15.30;99.90
21648;DHT22;10985;54.182;7.890;2023-07-20T00:14:27;15.30;99.90
21648;DHT22;10985;54.182;7.890;2023-07-20T00:16:54;15.30;99.90
21648;DHT22;10985;54.182;7.890;2023-07-20T00:19:23;15.30;99.90
21648;DHT22;10985;54.182;7.890;2023-07-20T00:21:49;15.30;99.90
21648;DHT22;10985;54.182;7.890;2023-07-20T00:24:15;15.30;99.90
21648;DHT22;10985;54.182;7.890;2023-07-20T00:26:40;15.30;99.90
21648;DHT22;10985;54.182;7.890;2023-07-20T00:29:06;15.20;99.90
21648;DHT22;10985;54.182;7.890;2023-07-20T00:31:31;15.30;99.90
21648;DHT22;10985;54.182;7.890;2023-07-20T00:33:57;15.30;99.90
21648;DHT22;10985;54.182;7.890;2023-07-20T00:36:22;15.20;99.90
21648;DHT22;10985;54.182;7.890;2023-07-20T00:38:48;15.20;99.90
21648;DHT22;10985;54.182;7.890;2023-07-20T00:41:13;15.20;99.90
21648;DHT22;10985;54.182;7.890;2023-07-20T00:43:40;15.20;99.90
21648;DHT22;10985;54.182;7.890;2023-07-20T00:46:05;15.20;99.90
21648;DHT22;10985;54.182;7.890;2023-07-20T00:48:31;15.20;99.90
21648;DHT22;10985;54.182;7.890;2023-07-20T00:50:58;15.20;99.90
21648;DHT22;10985;54.182;7.890;2023-07-20T00:53:24;15.20;99.90
21648;DHT22;10985;54.182;7.890;2023-07-20T00:55:50;15.20;99.90
21648;DHT22;10985;54.182;7.890;2023-07-20T00:58:16;15.20;99.90
21648;DHT22;10985;54.182;7.890;2023-07-20T01:00:41;15.20;99.90
21648;DHT22;10985;54.182;7.890;2023-07-20T01:03:07;15.20;99.90
21648;DHT22;10985;54.182;7.890;2023-07-20T01:11:50;15.10;99.90
21648;DHT22;10985;54.182;7.890;2023-07-20T01:14:20;15.10;99.90
21648;DHT22;10985;54.182;7.890;2023-07-20T01:16:45;15.10;99.90
21648;DHT22;10985;54.182;7.890;2023-07-20T01:19:13;15.10;99.90
21648;DHT22;10985;54.182;7.890;2023-07-20T01:21:55;15.10;99.90
21648;DHT22;10985;54.182;7.890;2023-07-20T01:24:52;15.10;99.90
21648;DHT22;10985;54.182;7.890;2023-07-20T01:33:15;15.10;99.90
21648;DHT22;10985;54.182;7.890;2023-07-20T01:35:43;15.10;99.90
21648;DHT22;10985;54.182;7.890;2023-07-20T01:38:11;15.10;99.90
21648;DHT22;10985;54.182;7.890;2023-07-20T01:40:38;15.10;99.90
21648;DHT22;10985;54.182;7.890;2023-07-20T01:43:03;15.10;99.90
21648;DHT22;10985;54.182;7.890;2023-07-20T01:45:29;15.10;99.90
21648;DHT22;10985;54.182;7.890;2023-07-20T01:47:54;15.10;99.90
21648;DHT22;10985;54.182;7.890;2023-07-20T01:50:20;15.10;99.90
21648;DHT22;10985;54.182;7.890;2023-07-20T01:52:45;15.10;99.90
21648;DHT22;10985;54.182;7.890;2023-07-20T01:55:11;15.10;99.90
21648;DHT22;10985;54.182;7.890;2023-07-20T01:57:37;15.10;99.90
21648;DHT22;10985;54.182;7.890;2023-07-20T02:00:03;15.10;99.90
21648;DHT22;10985;54.182;7.890;2023-07-20T02:02:29;15.00;99.90
21648;DHT22;10985;54.182;7.890;2023-07-20T02:04:54;15.10;99.90
21648;DHT22;10985;54.182;7.890;2023-07-20T02:07:20;15.10;99.90
21648;DHT22;10985;54.182;7.890;2023-07-20T02:09:45;15.10;99.90
21648;DHT22;10985;54.182;7.890;2023-07-20T02:12:11;15.00;99.90
21648;DHT22;10985;54.182;7.890;2023-07-20T02:14:36;15.00;99.90
21648;DHT22;10985;54.182;7.890;2023-07-20T02:17:02;15.10;99.90
21648;DHT22;10985;54.182;7.890;2023-07-20T02:19:29;15.00;99.90
21648;DHT22;10985;54.182;7.890;2023-07-20T02:21:55;15.00;99.90
21648;DHT22;10985;54.182;7.890;2023-07-20T02:24:20;15.00;99.90
21648;DHT22;10985;54.182;7.890;2023-07-20T02:26:46;15.10;99.90
21648;DHT22;10985;54.182;7.890;2023-07-20T02:29:11;15.10;99.90
21648;DHT22;10985;54.182;7.890;2023-07-20T02:31:37;15.10;99.90
21648;DHT22;10985;54.182;7.890;2023-07-20T02:34:05;15.10;99.90
21648;DHT22;10985;54.182;7.890;2023-07-20T02:36:30;15.00;99.90
21648;DHT22;10985;54.182;7.890;2023-07-20T02:38:58;15.00;99.90
21648;DHT22;10985;54.182;7.890;2023-07-20T02:41:24;15.00;99.90
21648;DHT22;10985;54.182;7.890;2023-07-20T02:43:49;15.00;99.90
21648;DHT22;10985;54.182;7.890;2023-07-20T02:46:15;15.00;99.90
21648;DHT22;10985;54.182;7.890;2023-07-20T02:48:40;15.00;99.90
21648;DHT22;10985;54.182;7.890;2023-07-20T02:51:06;15.00;99.90
21648;DHT22;10985;54.182;7.890;2023-07-20T02:53:33;15.00;99.90
21648;DHT22;10985;54.182;7.890;2023-07-20T02:55:58;15.00;99.90
21648;DHT22;10985;54.182;7.890;2023-07-20T02:58:24;15.00;99.90
21648;DHT22;10985;54.182;7.890;2023-07-20T03:00:49;15.00;99.90
21648;DHT22;10985;54.182;7.890;2023-07-20T03:03:15;15.00;99.90
21648;DHT22;10985;54.182;7.890;2023-07-20T03:05:41;14.90;99.90
21648;DHT22;10985;54.182;7.890;2023-07-20T03:08:07;14.90;99.90
21648;DHT22;10985;54.182;7.890;2023-07-20T03:10:40;15.00;99.90
21648;DHT22;10985;54.182;7.890;2023-07-20T03:13:06;15.00;99.90
21648;DHT22;10985;54.182;7.890;2023-07-20T03:15:32;15.00;99.90
21648;DHT22;10985;54.182;7.890;2023-07-20T03:17:58;15.00;99.90
21648;DHT22;10985;54.182;7.890;2023-07-20T03:20:24;15.00;99.90
21648;DHT22;10985;54.182;7.890;2023-07-20T03:22:49;15.00;99.90
21648;DHT22;10985;54.182;7.890;2023-07-20T03:25:15;15.00;99.90
21648;DHT22;10985;54.182;7.890;2023-07-20T03:27:40;15.00;99.90
21648;DHT22;10985;54.182;7.890;2023-07-20T03:30:07;15.00;99.90
21648;DHT22;10985;54.182;7.890;2023-07-20T03:32:35;15.10;99.90
21648;DHT22;10985;54.182;7.890;2023-07-20T03:35:00;15.10;99.90
21648;DHT22;10985;54.182;7.890;2023-07-20T03:37:26;15.10;99.90
21648;DHT22;10985;54.182;7.890;2023-07-20T03:39:51;15.10;99.90
21648;DHT22;10985;54.182;7.890;2023-07-20T03:42:17;15.00;99.90
21648;DHT22;10985;54.182;7.890;2023-07-20T03:44:42;15.00;99.90
21648;DHT22;10985;54.182;7.890;2023-07-20T03:47:08;15.00;99.90
21648;DHT22;10985;54.182;7.890;2023-07-20T03:49:34;14.90;99.90
21648;DHT22;10985;54.182;7.890;2023-07-20T03:52:01;14.90;99.90
21648;DHT22;10985;54.182;7.890;2023-07-20T03:54:28;14.80;99.90
21648;DHT22;10985;54.182;7.890;2023-07-20T03:56:54;14.70;99.90
21648;DHT22;10985;54.182;7.890;2023-07-20T03:59:20;14.70;99.90
21648;DHT22;10985;54.182;7.890;2023-07-20T04:01:46;14.70;99.90
21648;DHT22;10985;54.182;7.890;2023-07-20T04:04:11;14.80;99.90
21648;DHT22;10985;54.182;7.890;2023-07-20T04:06:37;14.80;99.90
21648;DHT22;10985;54.182;7.890;2023-07-20T04:09:03;14.70;99.90
21648;DHT22;10985;54.182;7.890;2023-07-20T04:11:30;14.70;99.90
21648;DHT22;10985;54.182;7.890;2023-07-20T04:13:56;14.70;99.90
21648;DHT22;10985;54.182;7.890;2023-07-20T04:16:21;14.70;99.90
21648;DHT22;10985;54.182;7.890;2023-07-20T04:18:47;14.70;99.90
21648;DHT22;10985;54.182;7.890;2023-07-20T04:21:12;14.80;99.90
21648;DHT22;10985;54.182;7.890;2023-07-20T04:23:38;14.80;99.90
21648;DHT22;10985;54.182;7.890;2023-07-20T04:26:03;14.70;99.90
21648;DHT22;10985;54.182;7.890;2023-07-20T04:28:29;14.70;99.90
21648;DHT22;10985;54.182;7.890;2023-07-20T04:31:09;14.70;99.90
21648;DHT22;10985;54.182;7.890;2023-07-20T04:33:36;14.70;99.90
21648;DHT22;10985;54.182;7.890;2023-07-20T04:36:02;14.80;99.90
21648;DHT22;10985;54.182;7.890;2023-07-20T04:38:28;14.80;99.90
21648;DHT22;10985;54.182;7.890;2023-07-20T04:40:53;14.80;99.90
21648;DHT22;10985;54.182;7.890;2023-07-20T04:43:19;14.80;99.90
21648;DHT22;10985;54.182;7.890;2023-07-20T04:45:45;14.80;99.90
21648;DHT22;10985;54.182;7.890;2023-07-20T04:48:12;14.80;99.90
21648;DHT22;10985;54.182;7.890;2023-07-20T04:50:38;14.90;99.90
21648;DHT22;10985;54.182;7.890;2023-07-20T04:53:05;14.90;99.90
21648;DHT22;10985;54.182;7.890;2023-07-20T04:55:31;14.90;99.90
21648;DHT22;10985;54.182;7.890;2023-07-20T04:58:00;15.00;99.90
21648;DHT22;10985;54.182;7.890;2023-07-20T05:00:25;15.00;99.90
21648;DHT22;10985;54.182;7.890;2023-07-20T05:02:51;15.00;99.90
21648;DHT22;10985;54.182;7.890;2023-07-20T05:05:16;15.00;99.90
21648;DHT22;10985;54.182;7.890;2023-07-20T05:07:42;15.00;99.90
21648;DHT22;10985;54.182;7.890;2023-07-20T05:10:08;15.10;99.90
21648;DHT22;10985;54.182;7.890;2023-07-20T05:12:33;15.10;99.90
21648;DHT22;10985;54.182;7.890;2023-07-20T05:14:59;15.10;99.90
21648;DHT22;10985;54.182;7.890;2023-07-20T05:17:24;15.20;99.90
21648;DHT22;10985;54.182;7.890;2023-07-20T05:19:50;15.20;99.90
21648;DHT22;10985;54.182;7.890;2023-07-20T05:22:16;15.30;99.90
21648;DHT22;10985;54.182;7.890;2023-07-20T05:24:41;15.40;99.90
21648;DHT22;10985;54.182;7.890;2023-07-20T05:27:07;15.40;99.90
21648;DHT22;10985;54.182;7.890;2023-07-20T05:29:32;15.40;99.90
21648;DHT22;10985;54.182;7.890;2023-07-20T05:31:58;15.50;99.90
21648;DHT22;10985;54.182;7.890;2023-07-20T05:34:24;15.60;99.90
21648;DHT22;10985;54.182;7.890;2023-07-20T05:36:49;15.60;99.90
21648;DHT22;10985;54.182;7.890;2023-07-20T05:39:16;15.70;99.90
21648;DHT22;10985;54.182;7.890;2023-07-20T05:41:42;15.70;99.90
21648;DHT22;10985;54.182;7.890;2023-07-20T05:44:08;15.80;99.90
21648;DHT22;10985;54.182;7.890;2023-07-20T05:46:33;15.90;99.90
21648;DHT22;10985;54.182;7.890;2023-07-20T05:48:59;16.00;99.90
21648;DHT22;10985;54.182;7.890;2023-07-20T05:51:25;16.00;99.90
21648;DHT22;10985;54.182;7.890;2023-07-20T05:53:51;16.20;99.90
21648;DHT22;10985;54.182;7.890;2023-07-20T05:56:16;16.30;99.90
21648;DHT22;10985;54.182;7.890;2023-07-20T05:58:42;16.40;99.90
21648;DHT22;10985;54.182;7.890;2023-07-20T06:01:07;16.50;99.90
21648;DHT22;10985;54.182;7.890;2023-07-20T06:03:33;16.50;99.90
21648;DHT22;10985;54.182;7.890;2023-07-20T06:06:02;16.40;99.90
21648;DHT22;10985;54.182;7.890;2023-07-20T06:08:29;16.30;99.90
21648;DHT22;10985;54.182;7.890;2023-07-20T06:10:55;16.20;99.90
21648;DHT22;10985;54.182;7.890;2023-07-20T06:13:21;16.10;99.90
21648;DHT22;10985;54.182;7.890;2023-07-20T06:15:47;15.90;99.90
21648;DHT22;10985;54.182;7.890;2023-07-20T06:18:13;15.80;99.90
21648;DHT22;10985;54.182;7.890;2023-07-20T06:20:38;15.80;99.90
21648;DHT22;10985;54.182;7.890;2023-07-20T06:23:04;15.70;99.90
21648;DHT22;10985;54.182;7.890;2023-07-20T06:25:29;15.60;99.90
21648;DHT22;10985;54.182;7.890;2023-07-20T06:27:55;15.60;99.90
21648;DHT22;10985;54.182;7.890;2023-07-20T06:30:21;15.50;99.90
21648;DHT22;10985;54.182;7.890;2023-07-20T06:32:47;15.50;99.90
21648;DHT22;10985;54.182;7.890;2023-07-20T06:35:12;15.60;99.90
21648;DHT22;10985;54.182;7.890;2023-07-20T06:37:38;15.70;99.90
21648;DHT22;10985;54.182;7.890;2023-07-20T06:40:04;15.70;99.90
21648;DHT22;10985;54.182;7.890;2023-07-20T06:42:30;15.80;99.90
21648;DHT22;10985;54.182;7.890;2023-07-20T06:44:56;15.90;99.90
21648;DHT22;10985;54.182;7.890;2023-07-20T06:47:22;16.00;99.90
21648;DHT22;10985;54.182;7.890;2023-07-20T06:49:48;16.00;99.90
21648;DHT22;10985;54.182;7.890;2023-07-20T06:52:13;16.10;99.90
21648;DHT22;10985;54.182;7.890;2023-07-20T06:54:39;16.20;99.90
21648;DHT22;10985;54.182;7.890;2023-07-20T06:57:05;16.20;99.90
21648;DHT22;10985;54.182;7.890;2023-07-20T06:59:31;16.30;99.90
21648;DHT22;10985;54.182;7.890;2023-07-20T07:01:56;16.30;99.90
21648;DHT22;10985;54.182;7.890;2023-07-20T07:04:22;16.40;99.90
21648;DHT22;10985;54.182;7.890;2023-07-20T07:06:47;16.30;99.90
21648;DHT22;10985;54.182;7.890;2023-07-20T07:09:13;16.40;99.90
21648;DHT22;10985;54.182;7.890;2023-07-20T07:11:39;16.40;99.90
21648;DHT22;10985;54.182;7.890;2023-07-20T07:14:04;16.50;99.90
21648;DHT22;10985;54.182;7.890;2023-07-20T07:16:30;16.60;99.90
21648;DHT22;10985;54.182;7.890;2023-07-20T07:18:55;16.70;99.90
21648;DHT22;10985;54.182;7.890;2023-07-20T07:21:21;16.80;99.90
21648;DHT22;10985;54.182;7.890;2023-07-20T07:23:46;16.90;99.90
21648;DHT22;10985;54.182;7.890;2023-07-20T07:26:12;17.00;99.90
21648;DHT22;10985;54.182;7.890;2023-07-20T07:28:38;17.10;99.90
21648;DHT22;10985;54.182;7.890;2023-07-20T07:31:07;17.20;99.90
21648;DHT22;10985;54.182;7.890;2023-07-20T07:33:33;17.40;99.90
21648;DHT22;10985;54.182;7.890;2023-07-20T07:35:58;17.40;99.90
21648;DHT22;10985;54.182;7.890;2023-07-20T07:38:24;17.30;99.90
21648;DHT22;10985;54.182;7.890;2023-07-20T07:40:49;17.30;99.90
21648;DHT22;10985;54.182;7.890;2023-07-20T07:43:15;17.30;99.90
21648;DHT22;10985;54.182;7.890;2023-07-20T07:45:44;17.20;99.90
21648;DHT22;10985;54.182;7.890;2023-07-20T07:48:09;17.20;99.90
21648;DHT22;10985;54.182;7.890;2023-07-20T07:50:38;17.10;99.90
21648;DHT22;10985;54.182;7.890;2023-07-20T07:53:04;17.00;99.90
21648;DHT22;10985;54.182;7.890;2023-07-20T07:55:30;17.10;99.90
21648;DHT22;10985;54.182;7.890;2023-07-20T07:57:55;17.20;99.90
21648;DHT22;10985;54.182;7.890;2023-07-20T08:00:21;17.20;99.90
21648;DHT22;10985;54.182;7.890;2023-07-20T08:02:47;17.30;99.90
21648;DHT22;10985;54.182;7.890;2023-07-20T08:05:14;17.40;99.90
21648;DHT22;10985;54.182;7.890;2023-07-20T08:07:39;17.50;99.90
21648;DHT22;10985;54.182;7.890;2023-07-20T08:10:06;17.60;99.90
21648;DHT22;10985;54.182;7.890;2023-07-20T08:12:32;17.80;99.90
21648;DHT22;10985;54.182;7.890;2023-07-20T08:14:57;18.00;99.90
21648;DHT22;10985;54.182;7.890;2023-07-20T08:17:23;18.20;99.90
21648;DHT22;10985;54.182;7.890;2023-07-20T08:19:48;18.50;99.90
21648;DHT22;10985;54.182;7.890;2023-07-20T08:22:14;18.60;99.90
21648;DHT22;10985;54.182;7.890;2023-07-20T08:24:40;18.90;99.90
21648;DHT22;10985;54.182;7.890;2023-07-20T08:27:06;19.10;99.90
21648;DHT22;10985;54.182;7.890;2023-07-20T08:29:32;19.40;99.90
21648;DHT22;10985;54.182;7.890;2023-07-20T08:31:57;19.60;99.90
21648;DHT22;10985;54.182;7.890;2023-07-20T08:34:23;19.80;99.90
21648;DHT22;10985;54.182;7.890;2023-07-20T08:36:48;19.90;99.90
21648;DHT22;10985;54.182;7.890;2023-07-20T08:39:14;20.10;99.90
21648;DHT22;10985;54.182;7.890;2023-07-20T08:41:42;20.40;99.90
21648;DHT22;10985;54.182;7.890;2023-07-20T08:44:08;20.60;99.90
21648;DHT22;10985;54.182;7.890;2023-07-20T08:46:35;20.70;99.90
21648;DHT22;10985;54.182;7.890;2023-07-20T08:49:03;20.90;99.90
21648;DHT22;10985;54.182;7.890;2023-07-20T08:51:29;21.20;99.90
21648;DHT22;10985;54.182;7.890;2023-07-20T08:53:55;21.60;99.90
21648;DHT22;10985;54.182;7.890;2023-07-20T08:56:21;22.20;99.90
21648;DHT22;10985;54.182;7.890;2023-07-20T08:58:49;22.70;99.90
21648;DHT22;10985;54.182;7.890;2023-07-20T09:01:15;23.20;99.90
21648;DHT22;10985;54.182;7.890;2023-07-20T09:03:44;23.30;99.90
21648;DHT22;10985;54.182;7.890;2023-07-20T09:06:10;23.40;99.90
21648;DHT22;10985;54.182;7.890;2023-07-20T09:08:38;23.20;99.90
21648;DHT22;10985;54.182;7.890;2023-07-20T09:11:04;23.30;99.90
21648;DHT22;10985;54.182;7.890;2023-07-20T09:13:29;23.30;99.90
21648;DHT22;10985;54.182;7.890;2023-07-20T09:15:55;23.50;99.90
21648;DHT22;10985;54.182;7.890;2023-07-20T09:18:28;23.70;99.90
21648;DHT22;10985;54.182;7.890;2023-07-20T09:21:05;24.10;99.90
21648;DHT22;10985;54.182;7.890;2023-07-20T09:23:36;24.60;99.90
21648;DHT22;10985;54.182;7.890;2023-07-20T09:26:12;24.90;99.90
21648;DHT22;10985;54.182;7.890;2023-07-20T09:28:52;25.20;99.90
21648;DHT22;10985;54.182;7.890;2023-07-20T09:31:19;25.20;99.90
21648;DHT22;10985;54.182;7.890;2023-07-20T09:33:45;24.90;99.90
21648;DHT22;10985;54.182;7.890;2023-07-20T09:36:11;25.00;99.90
21648;DHT22;10985;54.182;7.890;2023-07-20T09:38:37;25.20;99.90
21648;DHT22;10985;54.182;7.890;2023-07-20T09:41:05;25.70;99.90
21648;DHT22;10985;54.182;7.890;2023-07-20T09:43:31;26.00;99.90
21648;DHT22;10985;54.182;7.890;2023-07-20T09:45:58;26.30;99.90
21648;DHT22;10985;54.182;7.890;2023-07-20T09:48:25;26.20;99.90
21648;DHT22;10985;54.182;7.890;2023-07-20T09:50:51;25.90;99.90
21648;DHT22;10985;54.182;7.890;2023-07-20T09:53:18;25.50;99.90
21648;DHT22;10985;54.182;7.890;2023-07-20T09:55:45;25.10;99.90
21648;DHT22;10985;54.182;7.890;2023-07-20T09:58:11;24.70;99.90
21648;DHT22;10985;54.182;7.890;2023-07-20T10:00:38;24.40;99.90
21648;DHT22;10985;54.182;7.890;2023-07-20T10:03:05;23.80;99.90
21648;DHT22;10985;54.182;7.890;2023-07-20T10:05:36;23.50;99.90
21648;DHT22;10985;54.182;7.890;2023-07-20T10:08:04;22.90;99.90
21648;DHT22;10985;54.182;7.890;2023-07-20T10:10:33;22.60;99.90
21648;DHT22;10985;54.182;7.890;2023-07-20T10:13:01;22.20;99.90
21648;DHT22;10985;54.182;7.890;2023-07-20T10:15:33;21.70;99.90
21648;DHT22;10985;54.182;7.890;2023-07-20T10:18:09;21.50;99.90
21648;DHT22;10985;54.182;7.890;2023-07-20T10:20:39;21.20;99.90
21648;DHT22;10985;54.182;7.890;2023-07-20T10:23:06;21.20;99.90
21648;DHT22;10985;54.182;7.890;2023-07-20T10:25:33;21.10;99.90
21648;DHT22;10985;54.182;7.890;2023-07-20T10:28:07;21.20;99.90
21648;DHT22;10985;54.182;7.890;2023-07-20T10:30:36;21.40;99.90
21648;DHT22;10985;54.182;7.890;2023-07-20T10:33:03;21.80;99.90
21648;DHT22;10985;54.182;7.890;2023-07-20T10:35:29;22.00;99.90
21648;DHT22;10985;54.182;7.890;2023-07-20T10:38:00;22.10;99.90
21648;DHT22;10985;54.182;7.890;2023-07-20T10:40:38;22.30;99.90
21648;DHT22;10985;54.182;7.890;2023-07-20T10:43:06;22.60;99.90
21648;DHT22;10985;54.182;7.890;2023-07-20T10:48:27;23.70;99.90
21648;DHT22;10985;54.182;7.890;2023-07-20T10:51:19;24.30;99.90
21648;DHT22;10985;54.182;7.890;2023-07-20T10:53:45;24.90;99.90
21648;DHT22;10985;54.182;7.890;2023-07-20T10:56:20;25.40;99.90
21648;DHT22;10985;54.182;7.890;2023-07-20T10:58:45;25.80;99.90
21648;DHT22;10985;54.182;7.890;2023-07-20T11:01:16;26.30;99.90
21648;DHT22;10985;54.182;7.890;2023-07-20T11:03:43;26.80;99.90
21648;DHT22;10985;54.182;7.890;2023-07-20T11:09:07;27.50;99.90
21648;DHT22;10985;54.182;7.890;2023-07-20T11:11:43;27.80;99.90
21648;DHT22;10985;54.182;7.890;2023-07-20T11:14:11;28.10;99.90
21648;DHT22;10985;54.182;7.890;2023-07-20T11:16:46;28.60;99.90
21648;DHT22;10985;54.182;7.890;2023-07-20T11:19:25;28.90;99.90
21648;DHT22;10985;54.182;7.890;2023-07-20T11:21:53;28.90;99.90
21648;DHT22;10985;54.182;7.890;2023-07-20T11:24:19;29.10;99.90
21648;DHT22;10985;54.182;7.890;2023-07-20T11:26:54;29.40;99.90
21648;DHT22;10985;54.182;7.890;2023-07-20T11:29:21;29.30;99.90
21648;DHT22;10985;54.182;7.890;2023-07-20T11:31:47;29.50;99.90
21648;DHT22;10985;54.182;7.890;2023-07-20T11:36:41;30.00;99.00
21648;DHT22;10985;54.182;7.890;2023-07-20T11:39:11;29.80;97.90
21648;DHT22;10985;54.182;7.890;2023-07-20T11:41:37;30.00;98.80
21648;DHT22;10985;54.182;7.890;2023-07-20T11:44:04;30.20;98.80
21648;DHT22;10985;54.182;7.890;2023-07-20T11:46:33;30.10;99.00
21648;DHT22;10985;54.182;7.890;2023-07-20T11:49:00;30.00;98.80
21648;DHT22;10985;54.182;7.890;2023-07-20T11:51:27;29.80;99.00
21648;DHT22;10985;54.182;7.890;2023-07-20T11:53:54;30.00;98.90
21648;DHT22;10985;54.182;7.890;2023-07-20T11:56:19;30.00;98.20
21648;DHT22;10985;54.182;7.890;2023-07-20T11:58:45;30.00;99.20
21648;DHT22;10985;54.182;7.890;2023-07-20T12:01:12;29.90;99.60
21648;DHT22;10985;54.182;7.890;2023-07-20T12:03:38;29.90;99.20
21648;DHT22;10985;54.182;7.890;2023-07-20T12:06:08;29.80;99.20
21648;DHT22;10985;54.182;7.890;2023-07-20T12:08:34;29.60;98.80
21648;DHT22;10985;54.182;7.890;2023-07-20T12:10:59;29.50;98.90
21648;DHT22;10985;54.182;7.890;2023-07-20T12:13:40;29.50;99.90
21648;DHT22;10985;54.182;7.890;2023-07-20T12:16:13;29.50;99.90
21648;DHT22;10985;54.182;7.890;2023-07-20T12:18:39;29.50;99.80
21648;DHT22;10985;54.182;7.890;2023-07-20T12:21:06;29.30;99.40
21648;DHT22;10985;54.182;7.890;2023-07-20T12:23:40;29.30;99.20
21648;DHT22;10985;54.182;7.890;2023-07-20T12:26:10;29.40;99.00
21648;DHT22;10985;54.182;7.890;2023-07-20T12:28:42;29.50;99.20
21648;DHT22;10985;54.182;7.890;2023-07-20T12:31:10;29.60;99.80
21648;DHT22;10985;54.182;7.890;2023-07-20T12:33:37;29.70;99.30
21648;DHT22;10985;54.182;7.890;2023-07-20T12:36:03;30.00;98.90
21648;DHT22;10985;54.182;7.890;2023-07-20T12:38:29;30.40;98.60
21648;DHT22;10985;54.182;7.890;2023-07-20T12:40:56;30.50;98.30
21648;DHT22;10985;54.182;7.890;2023-07-20T12:43:22;30.50;97.50
21648;DHT22;10985;54.182;7.890;2023-07-20T12:45:48;30.60;97.00
21648;DHT22;10985;54.182;7.890;2023-07-20T12:48:13;30.80;96.20
21648;DHT22;10985;54.182;7.890;2023-07-20T12:50:39;30.90;96.50
21648;DHT22;10985;54.182;7.890;2023-07-20T12:53:05;30.90;97.10
21648;DHT22;10985;54.182;7.890;2023-07-20T12:55:30;30.70;95.70
21648;DHT22;10985;54.182;7.890;2023-07-20T12:57:56;30.80;96.00
21648;DHT22;10985;54.182;7.890;2023-07-20T13:00:22;30.70;96.50
21648;DHT22;10985;54.182;7.890;2023-07-20T13:02:49;30.40;96.30
21648;DHT22;10985;54.182;7.890;2023-07-20T13:05:15;30.40;96.30
21648;DHT22;10985;54.182;7.890;2023-07-20T13:07:41;30.50;96.80
21648;DHT22;10985;54.182;7.890;2023-07-20T13:10:07;30.50;96.60
21648;DHT22;10985;54.182;7.890;2023-07-20T13:12:34;30.30;97.10
21648;DHT22;10985;54.182;7.890;2023-07-20T13:15:02;30.20;96.80
21648;DHT22;10985;54.182;7.890;2023-07-20T13:17:28;29.80;97.40
21648;DHT22;10985;54.182;7.890;2023-07-20T13:19:54;29.40;97.80
21648;DHT22;10985;54.182;7.890;2023-07-20T13:22:20;29.30;98.20
21648;DHT22;10985;54.182;7.890;2023-07-20T13:24:46;29.10;98.60
21648;DHT22;10985;54.182;7.890;2023-07-20T13:27:14;28.70;98.90
21648;DHT22;10985;54.182;7.890;2023-07-20T13:29:40;28.30;99.40
21648;DHT22;10985;54.182;7.890;2023-07-20T13:32:07;28.10;99.90
21648;DHT22;10985;54.182;7.890;2023-07-20T13:34:33;27.80;99.90
21648;DHT22;10985;54.182;7.890;2023-07-20T13:36:59;27.40;99.90
21648;DHT22;10985;54.182;7.890;2023-07-20T13:39:25;27.20;99.90
21648;DHT22;10985;54.182;7.890;2023-07-20T13:41:52;26.80;99.90
21648;DHT22;10985;54.182;7.890;2023-07-20T13:44:18;26.60;99.90
21648;DHT22;10985;54.182;7.890;2023-07-20T13:46:46;26.30;99.90
21648;DHT22;10985;54.182;7.890;2023-07-20T13:49:11;26.10;99.90
21648;DHT22;10985;54.182;7.890;2023-07-20T13:51:37;25.80;99.90
21648;DHT22;10985;54.182;7.890;2023-07-20T13:54:02;25.60;99.90
21648;DHT22;10985;54.182;7.890;2023-07-20T13:56:28;25.40;99.90
21648;DHT22;10985;54.182;7.890;2023-07-20T13:58:54;25.10;99.90
21648;DHT22;10985;54.182;7.890;2023-07-20T14:01:19;25.00;99.90
21648;DHT22;10985;54.182;7.890;2023-07-20T14:03:45;24.60;99.90
21648;DHT22;10985;54.182;7.890;2023-07-20T14:06:11;24.50;99.90
21648;DHT22;10985;54.182;7.890;2023-07-20T14:08:38;24.30;99.90
21648;DHT22;10985;54.182;7.890;2023-07-20T14:11:04;24.20;99.90
21648;DHT22;10985;54.182;7.890;2023-07-20T14:13:29;24.00;99.90
21648;DHT22;10985;54.182;7.890;2023-07-20T14:15:55;23.80;99.90
21648;DHT22;10985;54.182;7.890;2023-07-20T14:18:21;23.70;99.90
21648;DHT22;10985;54.182;7.890;2023-07-20T14:20:46;23.50;99.90
21648;DHT22;10985;54.182;7.890;2023-07-20T14:23:12;23.30;99.90
21648;DHT22;10985;54.182;7.890;2023-07-20T14:25:37;23.20;99.90
21648;DHT22;10985;54.182;7.890;2023-07-20T14:28:03;23.00;99.90
21648;DHT22;10985;54.182;7.890;2023-07-20T14:30:28;22.90;99.90
21648;DHT22;10985;54.182;7.890;2023-07-20T14:32:54;22.80;99.90
21648;DHT22;10985;54.182;7.890;2023-07-20T14:35:19;22.70;99.90
21648;DHT22;10985;54.182;7.890;2023-07-20T14:37:45;22.60;99.90
21648;DHT22;10985;54.182;7.890;2023-07-20T14:40:12;22.40;99.90
21648;DHT22;10985;54.182;7.890;2023-07-20T14:42:38;22.30;99.90
21648;DHT22;10985;54.182;7.890;2023-07-20T14:45:04;22.20;99.90
21648;DHT22;10985;54.182;7.890;2023-07-20T14:47:31;22.10;99.90
21648;DHT22;10985;54.182;7.890;2023-07-20T14:50:00;22.00;99.90
21648;DHT22;10985;54.182;7.890;2023-07-20T14:52:27;21.90;99.90
21648;DHT22;10985;54.182;7.890;2023-07-20T14:54:54;21.80;99.90
21648;DHT22;10985;54.182;7.890;2023-07-20T14:57:20;21.70;99.90
21648;DHT22;10985;54.182;7.890;2023-07-20T14:59:48;21.70;99.90
21648;DHT22;10985;54.182;7.890;2023-07-20T15:02:14;21.50;99.90
21648;DHT22;10985;54.182;7.890;2023-07-20T15:04:49;21.40;99.90
21648;DHT22;10985;54.182;7.890;2023-07-20T15:07:17;21.30;99.90
21648;DHT22;10985;54.182;7.890;2023-07-20T15:09:43;21.20;99.90
21648;DHT22;10985;54.182;7.890;2023-07-20T15:12:09;21.20;99.90
21648;DHT22;10985;54.182;7.890;2023-07-20T15:14:35;21.10;99.90
21648;DHT22;10985;54.182;7.890;2023-07-20T15:17:00;21.00;99.90
21648;DHT22;10985;54.182;7.890;2023-07-20T15:19:26;21.00;99.90
21648;DHT22;10985;54.182;7.890;2023-07-20T15:21:51;20.90;99.90
21648;DHT22;10985;54.182;7.890;2023-07-20T15:24:17;20.80;99.90
21648;DHT22;10985;54.182;7.890;2023-07-20T15:26:42;20.80;99.90
21648;DHT22;10985;54.182;7.890;2023-07-20T15:29:08;20.70;99.90
21648;DHT22;10985;54.182;7.890;2023-07-20T15:31:33;20.70;99.90
21648;DHT22;10985;54.182;7.890;2023-07-20T15:33:59;20.60;99.90
21648;DHT22;10985;54.182;7.890;2023-07-20T15:36:25;20.70;99.90
21648;DHT22;10985;54.182;7.890;2023-07-20T15:38:50;20.60;99.90
21648;DHT22;10985;54.182;7.890;2023-07-20T15:41:15;20.50;99.90
21648;DHT22;10985;54.182;7.890;2023-07-20T15:43:42;20.50;99.90
21648;DHT22;10985;54.182;7.890;2023-07-20T15:49:06;20.50;99.90
21648;DHT22;10985;54.182;7.890;2023-07-20T15:51:33;20.40;99.90